Flight Track Log - Related Links

Times and Time Zones

All times are in EDT time to prevent confusion due to time zone crossing. See the AAY800 flight status page for this flight to view local times or setup timezone preferences in your user account.

Time Position Orientation Groundspeed Altitude Reporting Facility
EDT Latitude Longitude Course Direction KTS MPH feet Rate Location/Type
Tue 07:50:30 AM 27.8833 -82.6833 180° South 164 189 900  Level Tampa TRACON
Tue 07:51:18 AM 27.8500 -82.6833 180° South 168 193 2,400 1,156 Climbing Tampa TRACON
Tue 07:52:19 AM 27.8167 -82.7000 204° Southwest 205 236 3,000 744 Climbing Tampa TRACON
Tue 07:53:19 AM 27.8167 -82.7667 270° West 258 297 3,900 1,902 Climbing Tampa TRACON
Tue 07:55:22 AM 27.9725 -82.7961 351° North 308 354 8,800 2,295 Climbing Jacksonville Center
Tue 07:56:22 AM 28.0622 -82.7867 North 308 354 10,900 1,600 Climbing Jacksonville Center
Tue 07:57:22 AM 28.1667 -82.7772 North 336 387 12,000 1,650 Climbing Jacksonville Center
Tue 07:58:22 AM 28.2792 -82.7606 North 374 430 14,200 2,250 Climbing Jacksonville Center
Tue 07:59:22 AM 28.3939 -82.7439 North 400 460 16,500 2,100 Climbing Jacksonville Center
Tue 08:00:22 AM 28.5089 -82.7272 North 413 475 18,400 1,700 Climbing Jacksonville Center
Tue 08:01:22 AM 28.6319 -82.7128 North 424 488 19,900 1,550 Climbing Jacksonville Center
Tue 08:02:22 AM 28.7653 -82.6936 North 429 494 21,500 1,550 Climbing Jacksonville Center
Tue 08:03:22 AM 28.8928 -82.6767 North 439 505 23,000 1,450 Climbing Jacksonville Center
Tue 08:04:22 AM 29.0200 -82.6503 10° North 449 517 24,400 1,400 Climbing Jacksonville Center
Tue 08:05:22 AM 29.1472 -82.6214 11° North 459 528 25,800 1,300 Climbing Jacksonville Center
Tue 08:06:22 AM 29.2744 -82.5997 North 459 528 27,000 1,350 Climbing Jacksonville Center
Tue 08:07:22 AM 29.3956 -82.6350 346° North 450 518 28,500 1,350 Climbing Jacksonville Center
Tue 08:08:22 AM 29.5064 -82.6731 343° North 445 512 29,700 750 Climbing Jacksonville Center
Tue 08:09:22 AM 29.6275 -82.7086 346° North 451 519 30,000 446 Climbing Jacksonville Center
Tue 08:10:23 AM 29.7444 -82.7347 349° North 445 512 30,600 500 Climbing Jacksonville Center
Tue 08:11:22 AM 29.8761 -82.7511 354° North 434 499 31,000 202 Climbing Jacksonville Center
Tue 08:12:22 AM 29.9992 -82.7656 354° North 432 497 31,000  Level Jacksonville Center
Tue 08:13:22 AM 30.1119 -82.7678 359° North 437 503 31,000  Level Jacksonville Center
Tue 08:14:22 AM 30.2331 -82.7436 10° North 437 503 31,000  Level Jacksonville Center
Tue 08:15:22 AM 30.3542 -82.7289 North 443 510 31,000  Level Jacksonville Center
Tue 08:16:22 AM 30.4772 -82.6997 12° North 443 510 31,000  Level Jacksonville Center
Tue 08:17:22 AM 30.6108 -82.6803 North 443 510 31,000  Level Jacksonville Center
Tue 08:18:22 AM 30.7297 -82.6581 North 443 510 31,000  Level Jacksonville Center
Tue 08:19:22 AM 30.8550 -82.6383 North 443 510 31,000  Level Jacksonville Center
Tue 08:20:22 AM 30.9761 -82.6114 11° North 448 516 31,000  Level Jacksonville Center
Tue 08:21:22 AM 31.0972 -82.5942 North 448 516 31,000  Level Jacksonville Center
Tue 08:22:22 AM 31.2183 -82.5669 11° North 448 516 31,000  Level Jacksonville Center
Tue 08:23:22 AM 31.3414 -82.5497 North 448 516 31,000  Level Jacksonville Center
Tue 08:24:22 AM 31.4539 -82.5200 13° North 448 516 31,000  Level Jacksonville Center
Tue 08:26:41 AM 31.7400 -82.5786 350° North 433 498 31,000 181 Level Atlanta Center
Tue 08:27:41 AM 31.8553 -82.6133 346° North 433 498 31,600 500 Climbing Atlanta Center
Tue 08:28:41 AM 31.9725 -82.6506 345° North 433 498 32,000 200 Climbing Atlanta Center
Tue 08:29:41 AM 32.0981 -82.6633 355° North 433 498 32,000  Level Atlanta Center
Tue 08:30:41 AM 32.2214 -82.6886 350° North 446 513 32,000  Level Atlanta Center
Tue 08:31:41 AM 32.3447 -82.7039 354° North 446 513 32,000  Level Atlanta Center
Tue 08:32:41 AM 32.4700 -82.7267 351° North 446 513 32,000  Level Atlanta Center
Tue 08:33:41 AM 32.5808 -82.7422 353° North 439 505 32,000  Level Atlanta Center
Tue 08:34:41 AM 32.7044 -82.7650 351° North 439 505 32,000  Level Atlanta Center
Tue 08:35:41 AM 32.8297 -82.7756 356° North 444 511 32,000  Level Atlanta Center
Tue 08:36:41 AM 32.9511 -82.8011 350° North 444 511 32,000  Level Atlanta Center
Tue 08:37:41 AM 33.0783 -82.8167 354° North 444 511 32,000  Level Atlanta Center
Tue 08:38:41 AM 33.2039 -82.8422 350° North 444 511 32,000  Level Atlanta Center
Tue 08:39:41 AM 33.3314 -82.8578 354° North 449 517 32,000  Level Atlanta Center
Tue 08:40:41 AM 33.4569 -82.8811 351° North 449 517 32,000  Level Atlanta Center
Tue 08:41:41 AM 33.5886 -82.8992 353° North 454 522 32,000  Level Atlanta Center
Tue 08:42:41 AM 33.7183 -82.9225 351° North 460 529 32,000  Level Atlanta Center
Tue 08:43:41 AM 33.8456 -82.9408 353° North 465 535 32,000  Level Atlanta Center
Tue 08:44:41 AM 33.9753 -82.9617 352° North 465 535 32,000  Level Atlanta Center
Tue 08:45:41 AM 34.1047 -82.9825 352° North 465 535 32,000  Level Atlanta Center
Tue 08:46:41 AM 34.2322 -83.0011 353° North 465 535 32,000  Level Atlanta Center
Tue 08:47:41 AM 34.3597 -83.0222 352° North 465 535 32,000  Level Atlanta Center
Tue 08:48:41 AM 34.4894 -83.0408 353° North 465 535 32,000  Level Atlanta Center
Tue 08:49:41 AM 34.6211 -83.0594 353° North 465 535 32,000  Level Atlanta Center
Tue 08:50:41 AM 34.7483 -83.0806 352° North 465 535 32,000  Level Atlanta Center
Tue 08:51:41 AM 34.8781 -83.1069 351° North 465 535 32,000  Level Atlanta Center
Tue 08:52:41 AM 35.0097 -83.1208 355° North 465 535 32,000  Level Atlanta Center
Tue 08:53:41 AM 35.1392 -83.1472 351° North 465 535 32,000  Level Atlanta Center
Tue 08:54:41 AM 35.2728 -83.1636 354° North 470 541 32,000  Level Atlanta Center
Tue 08:55:41 AM 35.4044 -83.1903 351° North 470 541 32,000  Level Atlanta Center
Tue 08:56:41 AM 35.5381 -83.2092 353° North 475 547 32,000  Level Atlanta Center
Tue 08:57:41 AM 35.6719 -83.2361 351° North 485 558 32,000  Level Atlanta Center
Tue 08:58:41 AM 35.8097 -83.2525 354° North 485 558 32,000  Level Atlanta Center
Tue 08:59:41 AM 35.9433 -83.2794 351° North 485 558 32,000  Level Atlanta Center
Tue 09:00:41 AM 36.0811 -83.2989 353° North 485 558 32,000  Level Atlanta Center
Tue 09:01:41 AM 36.2189 -83.3258 351° North 485 558 32,000  Level Atlanta Center
Tue 09:03:23 AM 36.4536 -83.3642 353° North 505 581 32,000  Level Indianapolis Center
Tue 09:04:24 AM 36.6206 -83.3856 354° North 509 586 32,000  Level Indianapolis Center
Tue 09:05:26 AM 36.7600 -83.4139 351° North 505 581 32,000  Level Indianapolis Center
Tue 09:06:28 AM 36.8972 -83.4378 352° North 497 572 32,000  Level Indianapolis Center
Tue 09:07:30 AM 37.0417 -83.4625 352° North 511 588 32,000 -48 Level Indianapolis Center
Tue 09:08:32 AM 37.1842 -83.4858 353° North 512 589 31,900 -629 Descending Indianapolis Center
Tue 09:09:34 AM 37.3233 -83.5061 353° North 506 582 30,700 -919 Descending Indianapolis Center
Tue 09:10:36 AM 37.4533 -83.5344 350° North 480 552 30,000 -339 Descending Indianapolis Center
Tue 09:11:38 AM 37.5886 -83.5533 354° North 482 555 30,000  Level Indianapolis Center
Tue 09:12:39 AM 37.7500 -83.5853 351° North 498 573 30,000  Level Indianapolis Center
Tue 09:13:41 AM 37.8914 -83.6069 353° North 504 580 30,000  Level Indianapolis Center
Tue 09:14:43 AM 38.0319 -83.6331 352° North 506 582 30,000  Level Indianapolis Center
Tue 09:15:45 AM 38.1808 -83.6258 North 521 600 30,000  Level Indianapolis Center
Tue 09:16:47 AM 38.3267 -83.6331 358° North 522 601 30,000  Level Indianapolis Center
Tue 09:17:49 AM 38.4731 -83.6325 360° North 522 601 30,000  Level Indianapolis Center
Tue 09:18:51 AM 38.6450 -83.6361 359° North 525 604 30,000  Level Indianapolis Center
Tue 09:19:53 AM 38.7722 -83.6322 North 533 613 30,000  Level Indianapolis Center
Tue 09:20:55 AM 38.9492 -83.6358 359° North 533 613 30,000  Level Indianapolis Center
Tue 09:21:57 AM 39.0992 -83.6322 North 533 613 30,000  Level Indianapolis Center
Tue 09:22:59 AM 39.2481 -83.6336 360° North 533 613 30,000  Level Indianapolis Center
Tue 09:24:01 AM 39.3961 -83.6319 360° North 533 613 30,000  Level Indianapolis Center
Tue 09:25:03 AM 39.5464 -83.6386 358° North 534 615 30,000  Level Indianapolis Center
Tue 09:26:05 AM 39.6961 -83.6331 North 534 615 30,000 -871 Level Indianapolis Center
Tue 09:27:07 AM 39.8419 -83.6406 358° North 523 602 28,200 -1,839 Descending Indianapolis Center
Tue 09:28:09 AM 39.9850 -83.6322 North 505 581 26,200 -1,984 Descending Indianapolis Center
Tue 09:29:11 AM 40.1294 -83.6386 358° North 510 587 24,100 -1,839 Descending Indianapolis Center
Tue 09:30:13 AM 40.2983 -83.6367 North 509 586 22,400 -1,597 Descending Indianapolis Center
Tue 09:31:15 AM 40.4331 -83.6386 359° North 490 564 20,800 -1,500 Descending Indianapolis Center
Tue 09:32:17 AM 40.5639 -83.6336 North 476 548 19,300 -878 Descending Indianapolis Center
Tue 09:33:18 AM 40.6917 -83.6369 359° North 461 531 19,000 -146 Descending Indianapolis Center
Tue 09:34:20 AM 40.8211 -83.6364 360° North 462 532 19,000 -387 Level Indianapolis Center
Tue 09:35:22 AM 40.9506 -83.6356 360° North 463 533 18,200 -1,839 Descending Indianapolis Center
Tue 09:36:24 AM 41.0964 -83.6353 360° North 463 533 15,200 -2,371 Descending Indianapolis Center
Tue 09:37:26 AM 41.2222 -83.6353 360° North 453 521 13,300 -1,500 Descending Indianapolis Center
Tue 09:38:28 AM 41.3336 -83.6381 359° North 409 471 12,100 -1,452 Descending Indianapolis Center
Tue 09:39:30 AM 41.4169 -83.5864 25° Northeast 354 407 10,300 -2,371 Descending Indianapolis Center
Tue 09:40:32 AM 41.5031 -83.5075 34° Northeast 327 376 7,200 -2,468 Descending Indianapolis Center
Tue 09:41:34 AM 41.5792 -83.4944 North 306 352 5,200 -2,032 Descending Indianapolis Center
Tue 09:42:36 AM 41.6453 -83.5347 336° Northwest 274 315 3,000 -1,016 Descending Indianapolis Center
Tue 09:43:38 AM 41.6764 -83.6003 302° West 251 289 3,100 -288 Climbing Indianapolis Center
Tue 09:45:02 AM 41.6269 -83.6872 233° Southwest 160 184 2,300 -534 Descending Cleveland Center
Tue 09:46:04 AM 41.6128 -83.7281 245° Southwest 133 153 1,800 -339 Descending Cleveland Center
Tue 09:47:06 AM 41.6003 -83.7725 249° West 132 152 1,600 -194 Descending Cleveland Center

Login

Don't have an account? Register now (free) for customized features, flight alerts, and more!